sensor_id;sensor_type;location;lat;lon;timestamp;temperature;humidity
909;DHT22;441;51.192;6.788;2023-07-20T00:00:10;24.50;78.00
909;DHT22;441;51.192;6.788;2023-07-20T00:02:38;24.50;78.20
909;DHT22;441;51.192;6.788;2023-07-20T00:05:05;24.50;77.90
909;DHT22;441;51.192;6.788;2023-07-20T00:07:32;24.50;78.10
909;DHT22;441;51.192;6.788;2023-07-20T00:10:01;24.50;78.00
909;DHT22;441;51.192;6.788;2023-07-20T00:12:27;24.50;78.10
909;DHT22;441;51.192;6.788;2023-07-20T00:14:54;24.50;78.40
909;DHT22;441;51.192;6.788;2023-07-20T00:17:21;24.40;78.40
909;DHT22;441;51.192;6.788;2023-07-20T00:19:48;24.50;78.40
909;DHT22;441;51.192;6.788;2023-07-20T00:22:15;24.50;78.20
909;DHT22;441;51.192;6.788;2023-07-20T00:24:42;24.50;78.50
909;DHT22;441;51.192;6.788;2023-07-20T00:27:10;24.50;78.50
909;DHT22;441;51.192;6.788;2023-07-20T00:29:37;24.40;78.60
909;DHT22;441;51.192;6.788;2023-07-20T00:32:05;24.40;78.60
909;DHT22;441;51.192;6.788;2023-07-20T00:34:32;24.40;79.00
909;DHT22;441;51.192;6.788;2023-07-20T00:36:59;24.40;78.80
909;DHT22;441;51.192;6.788;2023-07-20T00:39:26;24.40;79.00
909;DHT22;441;51.192;6.788;2023-07-20T00:41:53;24.40;78.90
909;DHT22;441;51.192;6.788;2023-07-20T00:44:21;24.40;78.80
909;DHT22;441;51.192;6.788;2023-07-20T00:46:48;24.40;79.10
909;DHT22;441;51.192;6.788;2023-07-20T00:49:16;24.40;79.30
909;DHT22;441;51.192;6.788;2023-07-20T00:51:47;24.30;80.20
909;DHT22;441;51.192;6.788;2023-07-20T00:54:14;24.30;79.90
909;DHT22;441;51.192;6.788;2023-07-20T00:56:41;24.30;79.70
909;DHT22;441;51.192;6.788;2023-07-20T00:59:09;24.30;80.30
909;DHT22;441;51.192;6.788;2023-07-20T01:01:38;24.20;80.20
909;DHT22;441;51.192;6.788;2023-07-20T01:04:04;24.20;80.40
909;DHT22;441;51.192;6.788;2023-07-20T01:06:39;24.20;80.60
909;DHT22;441;51.192;6.788;2023-07-20T01:09:13;24.20;80.60
909;DHT22;441;51.192;6.788;2023-07-20T01:11:46;24.20;80.90
909;DHT22;441;51.192;6.788;2023-07-20T01:14:14;24.30;81.00
909;DHT22;441;51.192;6.788;2023-07-20T01:16:43;24.20;81.50
909;DHT22;441;51.192;6.788;2023-07-20T01:19:12;24.20;81.80
909;DHT22;441;51.192;6.788;2023-07-20T01:21:45;24.20;82.30
909;DHT22;441;51.192;6.788;2023-07-20T01:24:45;24.20;82.80
909;DHT22;441;51.192;6.788;2023-07-20T01:27:51;24.20;83.40
909;DHT22;441;51.192;6.788;2023-07-20T01:30:45;24.20;84.10
909;DHT22;441;51.192;6.788;2023-07-20T01:33:19;24.20;84.40
909;DHT22;441;51.192;6.788;2023-07-20T01:35:50;24.20;84.70
909;DHT22;441;51.192;6.788;2023-07-20T01:38:18;24.10;84.90
909;DHT22;441;51.192;6.788;2023-07-20T01:40:46;24.10;85.50
909;DHT22;441;51.192;6.788;2023-07-20T01:43:13;24.10;85.40
909;DHT22;441;51.192;6.788;2023-07-20T01:45:40;24.10;85.40
909;DHT22;441;51.192;6.788;2023-07-20T01:48:07;24.10;85.50
909;DHT22;441;51.192;6.788;2023-07-20T01:50:35;24.10;85.50
909;DHT22;441;51.192;6.788;2023-07-20T01:53:02;24.10;85.60
909;DHT22;441;51.192;6.788;2023-07-20T01:55:29;24.10;85.80
909;DHT22;441;51.192;6.788;2023-07-20T01:57:56;24.10;85.60
909;DHT22;441;51.192;6.788;2023-07-20T02:00:25;24.10;85.40
909;DHT22;441;51.192;6.788;2023-07-20T02:02:52;24.10;85.50
909;DHT22;441;51.192;6.788;2023-07-20T02:05:18;24.10;86.10
909;DHT22;441;51.192;6.788;2023-07-20T02:07:47;24.10;85.80
909;DHT22;441;51.192;6.788;2023-07-20T02:10:14;24.10;86.10
909;DHT22;441;51.192;6.788;2023-07-20T02:12:41;24.10;86.70
909;DHT22;441;51.192;6.788;2023-07-20T02:15:09;24.00;86.80
909;DHT22;441;51.192;6.788;2023-07-20T02:17:36;24.00;87.10
909;DHT22;441;51.192;6.788;2023-07-20T02:20:07;24.00;87.50
909;DHT22;441;51.192;6.788;2023-07-20T02:22:35;23.90;87.50
909;DHT22;441;51.192;6.788;2023-07-20T02:25:04;23.90;87.70
909;DHT22;441;51.192;6.788;2023-07-20T02:27:32;23.90;88.50
909;DHT22;441;51.192;6.788;2023-07-20T02:29:59;23.90;89.20
909;DHT22;441;51.192;6.788;2023-07-20T02:32:27;23.80;88.90
909;DHT22;441;51.192;6.788;2023-07-20T02:34:54;23.90;89.30
909;DHT22;441;51.192;6.788;2023-07-20T02:37:21;23.80;89.30
909;DHT22;441;51.192;6.788;2023-07-20T02:39:48;23.80;89.50
909;DHT22;441;51.192;6.788;2023-07-20T02:42:16;23.80;89.60
909;DHT22;441;51.192;6.788;2023-07-20T02:44:44;23.80;89.50
909;DHT22;441;51.192;6.788;2023-07-20T02:47:12;23.80;89.90
909;DHT22;441;51.192;6.788;2023-07-20T02:49:39;23.80;90.00
909;DHT22;441;51.192;6.788;2023-07-20T02:52:06;23.70;90.10
909;DHT22;441;51.192;6.788;2023-07-20T02:54:33;23.70;90.10
909;DHT22;441;51.192;6.788;2023-07-20T02:57:00;23.70;90.10
909;DHT22;441;51.192;6.788;2023-07-20T02:59:28;23.70;90.10
909;DHT22;441;51.192;6.788;2023-07-20T03:01:55;23.70;90.10
909;DHT22;441;51.192;6.788;2023-07-20T03:04:23;23.70;90.30
909;DHT22;441;51.192;6.788;2023-07-20T03:06:50;23.70;90.40
909;DHT22;441;51.192;6.788;2023-07-20T03:09:17;23.70;90.40
909;DHT22;441;51.192;6.788;2023-07-20T03:11:44;23.70;90.40
909;DHT22;441;51.192;6.788;2023-07-20T03:14:11;23.70;90.30
909;DHT22;441;51.192;6.788;2023-07-20T03:16:39;23.70;90.30
909;DHT22;441;51.192;6.788;2023-07-20T03:19:06;23.70;90.30
909;DHT22;441;51.192;6.788;2023-07-20T03:21:33;23.70;90.40
909;DHT22;441;51.192;6.788;2023-07-20T03:24:00;23.70;90.60
909;DHT22;441;51.192;6.788;2023-07-20T03:26:27;23.70;90.50
909;DHT22;441;51.192;6.788;2023-07-20T03:28:53;23.70;90.50
909;DHT22;441;51.192;6.788;2023-07-20T03:31:20;23.70;90.50
909;DHT22;441;51.192;6.788;2023-07-20T03:33:49;23.70;90.60
909;DHT22;441;51.192;6.788;2023-07-20T03:36:15;23.60;90.80
909;DHT22;441;51.192;6.788;2023-07-20T03:38:42;23.60;90.90
909;DHT22;441;51.192;6.788;2023-07-20T03:41:09;23.60;90.90
909;DHT22;441;51.192;6.788;2023-07-20T03:43:37;23.60;91.10
909;DHT22;441;51.192;6.788;2023-07-20T03:46:04;23.60;91.20
909;DHT22;441;51.192;6.788;2023-07-20T03:48:32;23.50;91.40
909;DHT22;441;51.192;6.788;2023-07-20T03:51:01;23.50;91.40
909;DHT22;441;51.192;6.788;2023-07-20T03:53:28;23.50;91.40
909;DHT22;441;51.192;6.788;2023-07-20T03:55:55;23.50;91.60
909;DHT22;441;51.192;6.788;2023-07-20T03:58:21;23.50;91.70
909;DHT22;441;51.192;6.788;2023-07-20T04:00:49;23.50;91.80
909;DHT22;441;51.192;6.788;2023-07-20T04:03:17;23.50;91.90
909;DHT22;441;51.192;6.788;2023-07-20T04:05:44;23.50;91.70
909;DHT22;441;51.192;6.788;2023-07-20T04:08:13;23.40;91.70
909;DHT22;441;51.192;6.788;2023-07-20T04:10:43;23.50;92.00
909;DHT22;441;51.192;6.788;2023-07-20T04:13:10;23.40;92.10
909;DHT22;441;51.192;6.788;2023-07-20T04:15:37;23.40;92.20
909;DHT22;441;51.192;6.788;2023-07-20T04:18:04;23.30;92.20
909;DHT22;441;51.192;6.788;2023-07-20T04:20:30;23.30;92.70
909;DHT22;441;51.192;6.788;2023-07-20T04:22:57;23.30;93.20
909;DHT22;441;51.192;6.788;2023-07-20T04:25:26;23.30;93.70
909;DHT22;441;51.192;6.788;2023-07-20T04:27:52;23.30;94.50
909;DHT22;441;51.192;6.788;2023-07-20T04:30:21;23.30;95.10
909;DHT22;441;51.192;6.788;2023-07-20T04:32:48;23.30;95.50
909;DHT22;441;51.192;6.788;2023-07-20T04:35:18;23.30;95.70
909;DHT22;441;51.192;6.788;2023-07-20T04:37:45;23.30;95.80
909;DHT22;441;51.192;6.788;2023-07-20T04:40:12;23.30;96.00
909;DHT22;441;51.192;6.788;2023-07-20T04:42:41;23.30;96.90
909;DHT22;441;51.192;6.788;2023-07-20T04:45:08;23.40;96.20
909;DHT22;441;51.192;6.788;2023-07-20T04:47:35;23.40;95.40
909;DHT22;441;51.192;6.788;2023-07-20T04:50:03;23.40;95.30
909;DHT22;441;51.192;6.788;2023-07-20T04:52:30;23.50;94.90
909;DHT22;441;51.192;6.788;2023-07-20T04:54:57;23.50;94.80
909;DHT22;441;51.192;6.788;2023-07-20T04:57:24;23.50;94.50
909;DHT22;441;51.192;6.788;2023-07-20T04:59:53;23.50;94.00
909;DHT22;441;51.192;6.788;2023-07-20T05:02:19;23.50;94.00
909;DHT22;441;51.192;6.788;2023-07-20T05:04:46;23.50;93.80
909;DHT22;441;51.192;6.788;2023-07-20T05:07:13;23.50;93.60
909;DHT22;441;51.192;6.788;2023-07-20T05:09:40;23.50;93.50
909;DHT22;441;51.192;6.788;2023-07-20T05:12:07;23.50;93.40
909;DHT22;441;51.192;6.788;2023-07-20T05:14:34;23.50;93.40
909;DHT22;441;51.192;6.788;2023-07-20T05:17:02;23.50;93.30
909;DHT22;441;51.192;6.788;2023-07-20T05:19:29;23.50;93.40
909;DHT22;441;51.192;6.788;2023-07-20T05:21:56;23.50;93.40
909;DHT22;441;51.192;6.788;2023-07-20T05:24:23;23.50;93.30
909;DHT22;441;51.192;6.788;2023-07-20T05:26:50;23.50;93.30
909;DHT22;441;51.192;6.788;2023-07-20T05:29:17;23.50;93.40
909;DHT22;441;51.192;6.788;2023-07-20T05:31:44;23.50;93.20
909;DHT22;441;51.192;6.788;2023-07-20T05:34:12;23.50;93.20
909;DHT22;441;51.192;6.788;2023-07-20T05:36:39;23.50;93.30
909;DHT22;441;51.192;6.788;2023-07-20T05:39:06;23.50;93.20
909;DHT22;441;51.192;6.788;2023-07-20T05:41:33;23.50;93.30
909;DHT22;441;51.192;6.788;2023-07-20T05:43:59;23.50;93.30
909;DHT22;441;51.192;6.788;2023-07-20T05:46:26;23.50;93.30
909;DHT22;441;51.192;6.788;2023-07-20T05:48:53;23.50;93.30
909;DHT22;441;51.192;6.788;2023-07-20T05:51:21;23.50;93.20
909;DHT22;441;51.192;6.788;2023-07-20T05:53:48;23.50;93.20
909;DHT22;441;51.192;6.788;2023-07-20T05:56:15;23.50;93.30
909;DHT22;441;51.192;6.788;2023-07-20T05:58:42;23.50;93.10
909;DHT22;441;51.192;6.788;2023-07-20T06:01:09;23.50;93.20
909;DHT22;441;51.192;6.788;2023-07-20T06:03:36;23.50;93.10
909;DHT22;441;51.192;6.788;2023-07-20T06:06:03;23.50;93.10
909;DHT22;441;51.192;6.788;2023-07-20T06:08:32;23.50;93.20
909;DHT22;441;51.192;6.788;2023-07-20T06:11:00;23.50;93.10
909;DHT22;441;51.192;6.788;2023-07-20T06:13:26;23.50;93.20
909;DHT22;441;51.192;6.788;2023-07-20T06:15:53;23.60;93.20
909;DHT22;441;51.192;6.788;2023-07-20T06:18:21;23.50;93.20
909;DHT22;441;51.192;6.788;2023-07-20T06:20:49;23.50;93.10
909;DHT22;441;51.192;6.788;2023-07-20T06:23:16;23.50;93.20
909;DHT22;441;51.192;6.788;2023-07-20T06:25:45;23.50;93.10
909;DHT22;441;51.192;6.788;2023-07-20T06:28:12;23.50;92.90
909;DHT22;441;51.192;6.788;2023-07-20T06:30:39;23.50;93.00
909;DHT22;441;51.192;6.788;2023-07-20T06:33:06;23.50;93.00
909;DHT22;441;51.192;6.788;2023-07-20T06:35:34;23.50;93.00
909;DHT22;441;51.192;6.788;2023-07-20T06:38:01;23.60;93.10
909;DHT22;441;51.192;6.788;2023-07-20T06:40:29;23.60;92.90
909;DHT22;441;51.192;6.788;2023-07-20T06:42:57;23.60;93.10
909;DHT22;441;51.192;6.788;2023-07-20T06:45:24;23.60;93.00
909;DHT22;441;51.192;6.788;2023-07-20T06:47:51;23.60;93.00
909;DHT22;441;51.192;6.788;2023-07-20T06:50:18;23.60;92.80
909;DHT22;441;51.192;6.788;2023-07-20T06:52:45;23.60;92.70
909;DHT22;441;51.192;6.788;2023-07-20T06:55:13;23.60;92.60
909;DHT22;441;51.192;6.788;2023-07-20T06:57:40;23.60;92.40
909;DHT22;441;51.192;6.788;2023-07-20T07:00:09;23.60;92.40
909;DHT22;441;51.192;6.788;2023-07-20T07:02:36;23.60;92.10
909;DHT22;441;51.192;6.788;2023-07-20T07:05:04;23.60;92.00
909;DHT22;441;51.192;6.788;2023-07-20T07:07:31;23.60;92.00
909;DHT22;441;51.192;6.788;2023-07-20T07:09:59;23.60;91.90
909;DHT22;441;51.192;6.788;2023-07-20T07:12:26;23.60;91.80
909;DHT22;441;51.192;6.788;2023-07-20T07:14:53;23.60;91.70
909;DHT22;441;51.192;6.788;2023-07-20T07:17:21;23.60;91.60
909;DHT22;441;51.192;6.788;2023-07-20T07:19:48;23.60;91.40
909;DHT22;441;51.192;6.788;2023-07-20T07:22:15;23.60;91.40
909;DHT22;441;51.192;6.788;2023-07-20T07:24:42;23.60;91.30
909;DHT22;441;51.192;6.788;2023-07-20T07:27:09;23.60;91.30
909;DHT22;441;51.192;6.788;2023-07-20T07:29:36;23.60;91.20
909;DHT22;441;51.192;6.788;2023-07-20T07:32:04;23.60;91.00
909;DHT22;441;51.192;6.788;2023-07-20T07:34:32;23.60;91.00
909;DHT22;441;51.192;6.788;2023-07-20T07:37:00;23.60;90.90
909;DHT22;441;51.192;6.788;2023-07-20T07:39:27;23.60;90.90
909;DHT22;441;51.192;6.788;2023-07-20T07:41:55;23.60;90.70
909;DHT22;441;51.192;6.788;2023-07-20T07:44:22;23.60;90.50
909;DHT22;441;51.192;6.788;2023-07-20T07:46:49;23.60;90.50
909;DHT22;441;51.192;6.788;2023-07-20T07:49:16;23.60;90.40
909;DHT22;441;51.192;6.788;2023-07-20T07:51:45;23.60;90.20
909;DHT22;441;51.192;6.788;2023-07-20T07:54:12;23.60;90.00
909;DHT22;441;51.192;6.788;2023-07-20T07:56:39;23.60;89.80
909;DHT22;441;51.192;6.788;2023-07-20T07:59:06;23.60;89.50
909;DHT22;441;51.192;6.788;2023-07-20T08:01:33;23.60;89.30
909;DHT22;441;51.192;6.788;2023-07-20T08:04:00;23.60;89.10
909;DHT22;441;51.192;6.788;2023-07-20T08:06:27;23.60;88.90
909;DHT22;441;51.192;6.788;2023-07-20T08:08:55;23.60;88.70
909;DHT22;441;51.192;6.788;2023-07-20T08:11:23;23.60;88.60
909;DHT22;441;51.192;6.788;2023-07-20T08:13:50;23.60;88.30
909;DHT22;441;51.192;6.788;2023-07-20T08:16:16;23.60;88.10
909;DHT22;441;51.192;6.788;2023-07-20T08:18:43;23.60;88.00
909;DHT22;441;51.192;6.788;2023-07-20T08:21:11;23.60;87.90
909;DHT22;441;51.192;6.788;2023-07-20T08:23:37;23.60;87.90
909;DHT22;441;51.192;6.788;2023-07-20T08:26:06;23.60;87.70
909;DHT22;441;51.192;6.788;2023-07-20T08:28:33;23.60;87.60
909;DHT22;441;51.192;6.788;2023-07-20T08:31:00;23.60;87.40
909;DHT22;441;51.192;6.788;2023-07-20T08:33:28;23.60;87.30
909;DHT22;441;51.192;6.788;2023-07-20T08:35:58;23.60;87.10
909;DHT22;441;51.192;6.788;2023-07-20T08:38:26;23.60;86.80
909;DHT22;441;51.192;6.788;2023-07-20T08:40:54;23.60;86.40
909;DHT22;441;51.192;6.788;2023-07-20T08:43:23;23.60;86.00
909;DHT22;441;51.192;6.788;2023-07-20T08:45:52;23.60;85.70
909;DHT22;441;51.192;6.788;2023-07-20T08:48:20;23.60;85.60
909;DHT22;441;51.192;6.788;2023-07-20T08:50:48;23.60;85.30
909;DHT22;441;51.192;6.788;2023-07-20T08:53:16;23.60;85.10
909;DHT22;441;51.192;6.788;2023-07-20T08:55:44;23.60;85.00
909;DHT22;441;51.192;6.788;2023-07-20T08:58:13;23.60;84.90
909;DHT22;441;51.192;6.788;2023-07-20T09:00:41;23.70;85.00
909;DHT22;441;51.192;6.788;2023-07-20T09:03:09;23.60;84.80
909;DHT22;441;51.192;6.788;2023-07-20T09:05:37;23.60;84.50
909;DHT22;441;51.192;6.788;2023-07-20T09:08:04;23.60;84.20
909;DHT22;441;51.192;6.788;2023-07-20T09:10:31;23.60;84.00
909;DHT22;441;51.192;6.788;2023-07-20T09:12:58;23.60;83.40
909;DHT22;441;51.192;6.788;2023-07-20T09:15:25;23.60;83.20
909;DHT22;441;51.192;6.788;2023-07-20T09:17:53;23.60;82.50
909;DHT22;441;51.192;6.788;2023-07-20T09:20:21;23.60;81.70
909;DHT22;441;51.192;6.788;2023-07-20T09:22:47;23.60;81.10
909;DHT22;441;51.192;6.788;2023-07-20T09:25:16;23.60;81.20
909;DHT22;441;51.192;6.788;2023-07-20T09:27:45;23.60;81.10
909;DHT22;441;51.192;6.788;2023-07-20T09:30:14;23.70;81.20
909;DHT22;441;51.192;6.788;2023-07-20T09:32:43;23.60;80.80
909;DHT22;441;51.192;6.788;2023-07-20T09:35:16;23.70;80.60
909;DHT22;441;51.192;6.788;2023-07-20T09:37:46;23.70;80.60
909;DHT22;441;51.192;6.788;2023-07-20T09:40:17;23.70;80.40
909;DHT22;441;51.192;6.788;2023-07-20T09:42:44;23.70;80.10
909;DHT22;441;51.192;6.788;2023-07-20T09:45:11;23.70;79.70
909;DHT22;441;51.192;6.788;2023-07-20T09:47:39;23.70;79.60
909;DHT22;441;51.192;6.788;2023-07-20T09:50:07;23.70;79.70
909;DHT22;441;51.192;6.788;2023-07-20T09:52:39;23.70;78.90
909;DHT22;441;51.192;6.788;2023-07-20T09:55:07;23.70;78.80
909;DHT22;441;51.192;6.788;2023-07-20T09:57:35;23.70;78.80
909;DHT22;441;51.192;6.788;2023-07-20T10:00:04;23.70;78.60
909;DHT22;441;51.192;6.788;2023-07-20T10:02:42;23.70;78.40
909;DHT22;441;51.192;6.788;2023-07-20T10:05:12;23.70;78.00
909;DHT22;441;51.192;6.788;2023-07-20T10:07:44;23.70;77.90
909;DHT22;441;51.192;6.788;2023-07-20T10:10:14;23.70;77.00
909;DHT22;441;51.192;6.788;2023-07-20T10:12:44;23.70;76.70
909;DHT22;441;51.192;6.788;2023-07-20T10:15:18;23.70;75.70
909;DHT22;441;51.192;6.788;2023-07-20T10:18:03;23.70;75.70
909;DHT22;441;51.192;6.788;2023-07-20T10:20:36;23.70;75.60
909;DHT22;441;51.192;6.788;2023-07-20T10:23:05;23.70;75.80
909;DHT22;441;51.192;6.788;2023-07-20T10:25:33;23.70;75.60
909;DHT22;441;51.192;6.788;2023-07-20T10:28:04;23.70;75.40
909;DHT22;441;51.192;6.788;2023-07-20T10:30:31;23.70;75.30
909;DHT22;441;51.192;6.788;2023-07-20T10:32:58;23.80;75.00
909;DHT22;441;51.192;6.788;2023-07-20T10:35:28;23.80;75.50
909;DHT22;441;51.192;6.788;2023-07-20T10:38:00;23.80;74.30
909;DHT22;441;51.192;6.788;2023-07-20T10:40:30;23.80;72.40
909;DHT22;441;51.192;6.788;2023-07-20T10:43:02;23.80;73.10
909;DHT22;441;51.192;6.788;2023-07-20T10:45:39;23.90;71.90
909;DHT22;441;51.192;6.788;2023-07-20T10:48:06;23.90;70.90
909;DHT22;441;51.192;6.788;2023-07-20T10:50:39;23.90;70.00
909;DHT22;441;51.192;6.788;2023-07-20T10:53:14;23.90;68.90
909;DHT22;441;51.192;6.788;2023-07-20T10:55:43;24.00;68.20
909;DHT22;441;51.192;6.788;2023-07-20T10:58:13;24.00;67.30
909;DHT22;441;51.192;6.788;2023-07-20T11:00:58;24.00;67.20
909;DHT22;441;51.192;6.788;2023-07-20T11:03:30;24.10;67.90
909;DHT22;441;51.192;6.788;2023-07-20T11:05:58;24.10;67.90
909;DHT22;441;51.192;6.788;2023-07-20T11:08:41;24.20;67.90
909;DHT22;441;51.192;6.788;2023-07-20T11:11:27;24.20;68.10
909;DHT22;441;51.192;6.788;2023-07-20T11:13:55;24.20;67.30
909;DHT22;441;51.192;6.788;2023-07-20T11:16:35;24.20;67.00
909;DHT22;441;51.192;6.788;2023-07-20T11:19:02;24.20;66.50
909;DHT22;441;51.192;6.788;2023-07-20T11:21:34;24.20;66.20
909;DHT22;441;51.192;6.788;2023-07-20T11:24:03;24.20;66.20
909;DHT22;441;51.192;6.788;2023-07-20T11:26:39;24.20;66.00
909;DHT22;441;51.192;6.788;2023-07-20T11:29:06;24.20;66.10
909;DHT22;441;51.192;6.788;2023-07-20T11:31:35;24.20;66.30
909;DHT22;441;51.192;6.788;2023-07-20T11:34:02;24.20;66.20
909;DHT22;441;51.192;6.788;2023-07-20T11:36:29;24.20;66.20
909;DHT22;441;51.192;6.788;2023-07-20T11:38:58;24.20;66.60
909;DHT22;441;51.192;6.788;2023-07-20T11:41:25;24.20;66.70
909;DHT22;441;51.192;6.788;2023-07-20T11:43:54;24.30;66.80
909;DHT22;441;51.192;6.788;2023-07-20T11:46:20;24.20;66.30
909;DHT22;441;51.192;6.788;2023-07-20T11:48:47;24.30;66.30
909;DHT22;441;51.192;6.788;2023-07-20T11:51:15;24.30;66.20
909;DHT22;441;51.192;6.788;2023-07-20T11:53:43;24.30;66.30
909;DHT22;441;51.192;6.788;2023-07-20T11:56:11;24.30;66.30
909;DHT22;441;51.192;6.788;2023-07-20T11:58:42;24.30;66.10
909;DHT22;441;51.192;6.788;2023-07-20T12:01:11;24.30;65.90
909;DHT22;441;51.192;6.788;2023-07-20T12:03:38;24.30;65.70
909;DHT22;441;51.192;6.788;2023-07-20T12:06:08;24.20;65.70
909;DHT22;441;51.192;6.788;2023-07-20T12:08:38;24.20;66.00
909;DHT22;441;51.192;6.788;2023-07-20T12:11:06;24.30;66.40
909;DHT22;441;51.192;6.788;2023-07-20T12:13:37;24.30;66.40
909;DHT22;441;51.192;6.788;2023-07-20T12:16:11;24.30;66.00
909;DHT22;441;51.192;6.788;2023-07-20T12:18:38;24.30;65.20
909;DHT22;441;51.192;6.788;2023-07-20T12:21:06;24.30;65.20
909;DHT22;441;51.192;6.788;2023-07-20T12:23:38;24.30;64.80
909;DHT22;441;51.192;6.788;2023-07-20T12:26:06;24.30;64.60
909;DHT22;441;51.192;6.788;2023-07-20T12:28:38;24.30;64.40
909;DHT22;441;51.192;6.788;2023-07-20T12:31:05;24.30;64.50
909;DHT22;441;51.192;6.788;2023-07-20T12:33:33;24.30;64.50
909;DHT22;441;51.192;6.788;2023-07-20T12:36:00;24.30;64.00
909;DHT22;441;51.192;6.788;2023-07-20T12:38:27;24.30;64.30
909;DHT22;441;51.192;6.788;2023-07-20T12:40:56;24.30;64.10
909;DHT22;441;51.192;6.788;2023-07-20T12:43:24;24.40;63.90
909;DHT22;441;51.192;6.788;2023-07-20T12:45:51;24.40;64.30
909;DHT22;441;51.192;6.788;2023-07-20T12:48:18;24.30;64.00
909;DHT22;441;51.192;6.788;2023-07-20T12:50:46;24.40;64.20
909;DHT22;441;51.192;6.788;2023-07-20T12:53:13;24.40;64.50
909;DHT22;441;51.192;6.788;2023-07-20T12:55:40;24.40;63.80
909;DHT22;441;51.192;6.788;2023-07-20T12:58:07;24.40;63.60
909;DHT22;441;51.192;6.788;2023-07-20T13:00:34;24.40;64.00
909;DHT22;441;51.192;6.788;2023-07-20T13:03:01;24.40;62.80
909;DHT22;441;51.192;6.788;2023-07-20T13:05:30;24.40;62.20
909;DHT22;441;51.192;6.788;2023-07-20T13:07:59;24.40;62.00
909;DHT22;441;51.192;6.788;2023-07-20T13:10:27;24.50;61.80
909;DHT22;441;51.192;6.788;2023-07-20T13:12:54;24.50;61.80
909;DHT22;441;51.192;6.788;2023-07-20T13:15:24;24.50;62.50
909;DHT22;441;51.192;6.788;2023-07-20T13:17:51;24.40;63.00
909;DHT22;441;51.192;6.788;2023-07-20T13:20:18;24.50;62.20
909;DHT22;441;51.192;6.788;2023-07-20T13:22:44;24.50;61.90
909;DHT22;441;51.192;6.788;2023-07-20T13:25:13;24.50;61.10
909;DHT22;441;51.192;6.788;2023-07-20T13:27:40;24.50;60.40
909;DHT22;441;51.192;6.788;2023-07-20T13:30:07;24.50;60.10
909;DHT22;441;51.192;6.788;2023-07-20T13:32:37;24.50;60.00
909;DHT22;441;51.192;6.788;2023-07-20T13:35:04;24.50;59.90
909;DHT22;441;51.192;6.788;2023-07-20T13:37:31;24.50;59.90
909;DHT22;441;51.192;6.788;2023-07-20T13:39:59;24.50;59.60
909;DHT22;441;51.192;6.788;2023-07-20T13:42:27;24.40;59.30
909;DHT22;441;51.192;6.788;2023-07-20T13:44:54;24.50;59.10
909;DHT22;441;51.192;6.788;2023-07-20T13:47:21;24.40;58.90
909;DHT22;441;51.192;6.788;2023-07-20T13:49:48;24.40;59.20
909;DHT22;441;51.192;6.788;2023-07-20T13:52:15;24.50;59.40
909;DHT22;441;51.192;6.788;2023-07-20T13:54:42;24.50;59.40
909;DHT22;441;51.192;6.788;2023-07-20T13:57:09;24.50;59.00
909;DHT22;441;51.192;6.788;2023-07-20T13:59:37;24.50;58.40
909;DHT22;441;51.192;6.788;2023-07-20T14:02:05;24.50;57.90
909;DHT22;441;51.192;6.788;2023-07-20T14:04:31;24.50;57.60
909;DHT22;441;51.192;6.788;2023-07-20T14:06:58;24.50;57.30
909;DHT22;441;51.192;6.788;2023-07-20T14:09:25;24.50;57.40
909;DHT22;441;51.192;6.788;2023-07-20T14:11:52;24.60;57.60
909;DHT22;441;51.192;6.788;2023-07-20T14:14:19;24.60;57.40
909;DHT22;441;51.192;6.788;2023-07-20T14:16:47;24.60;57.30
909;DHT22;441;51.192;6.788;2023-07-20T14:19:14;24.60;56.90
909;DHT22;441;51.192;6.788;2023-07-20T14:21:41;24.60;57.30
909;DHT22;441;51.192;6.788;2023-07-20T14:24:08;24.70;57.30
909;DHT22;441;51.192;6.788;2023-07-20T14:26:35;24.70;57.50
909;DHT22;441;51.192;6.788;2023-07-20T14:29:02;24.80;57.30
909;DHT22;441;51.192;6.788;2023-07-20T14:31:29;24.80;57.20
909;DHT22;441;51.192;6.788;2023-07-20T14:33:57;24.90;57.50
909;DHT22;441;51.192;6.788;2023-07-20T14:36:25;24.90;57.50
909;DHT22;441;51.192;6.788;2023-07-20T14:38:52;24.90;57.60
909;DHT22;441;51.192;6.788;2023-07-20T14:41:19;25.00;57.90
909;DHT22;441;51.192;6.788;2023-07-20T14:43:47;25.00;57.90
909;DHT22;441;51.192;6.788;2023-07-20T14:46:14;25.00;57.80
909;DHT22;441;51.192;6.788;2023-07-20T14:48:41;25.10;57.90
909;DHT22;441;51.192;6.788;2023-07-20T14:51:09;25.10;57.60
909;DHT22;441;51.192;6.788;2023-07-20T14:53:36;25.10;57.80
909;DHT22;441;51.192;6.788;2023-07-20T14:56:03;25.20;58.10
909;DHT22;441;51.192;6.788;2023-07-20T14:58:31;25.20;57.90
909;DHT22;441;51.192;6.788;2023-07-20T15:00:58;25.20;57.80
909;DHT22;441;51.192;6.788;2023-07-20T15:03:25;25.20;57.90
909;DHT22;441;51.192;6.788;2023-07-20T15:05:52;25.30;57.80
909;DHT22;441;51.192;6.788;2023-07-20T15:08:20;25.30;57.70
909;DHT22;441;51.192;6.788;2023-07-20T15:10:48;25.30;57.60
909;DHT22;441;51.192;6.788;2023-07-20T15:13:15;25.30;57.50
909;DHT22;441;51.192;6.788;2023-07-20T15:15:42;25.30;57.40
909;DHT22;441;51.192;6.788;2023-07-20T15:18:09;25.30;57.40
909;DHT22;441;51.192;6.788;2023-07-20T15:20:36;25.40;58.10
909;DHT22;441;51.192;6.788;2023-07-20T15:23:03;25.40;58.10
909;DHT22;441;51.192;6.788;2023-07-20T15:25:31;25.40;57.40
909;DHT22;441;51.192;6.788;2023-07-20T15:27:58;25.40;57.10
909;DHT22;441;51.192;6.788;2023-07-20T15:30:26;25.50;57.00
909;DHT22;441;51.192;6.788;2023-07-20T15:32:53;25.60;57.10
909;DHT22;441;51.192;6.788;2023-07-20T15:35:21;25.60;56.90
909;DHT22;441;51.192;6.788;2023-07-20T15:37:48;25.70;56.70
909;DHT22;441;51.192;6.788;2023-07-20T15:40:15;25.80;56.90
909;DHT22;441;51.192;6.788;2023-07-20T15:42:43;25.90;56.60
909;DHT22;441;51.192;6.788;2023-07-20T15:45:10;26.00;56.40
909;DHT22;441;51.192;6.788;2023-07-20T15:47:37;26.20;56.40
909;DHT22;441;51.192;6.788;2023-07-20T15:50:05;26.30;55.80
909;DHT22;441;51.192;6.788;2023-07-20T15:52:32;26.40;55.70
909;DHT22;441;51.192;6.788;2023-07-20T15:55:00;26.50;55.20
909;DHT22;441;51.192;6.788;2023-07-20T15:57:30;26.60;55.00
909;DHT22;441;51.192;6.788;2023-07-20T16:00:03;26.60;54.10
909;DHT22;441;51.192;6.788;2023-07-20T16:02:35;26.70;54.20
909;DHT22;441;51.192;6.788;2023-07-20T16:05:09;26.80;53.90
909;DHT22;441;51.192;6.788;2023-07-20T16:07:39;26.90;53.60
909;DHT22;441;51.192;6.788;2023-07-20T16:10:10;27.00;53.20
909;DHT22;441;51.192;6.788;2023-07-20T16:12:43;27.20;53.20
909;DHT22;441;51.192;6.788;2023-07-20T16:15:15;27.30;52.70
909;DHT22;441;51.192;6.788;2023-07-20T16:17:43;27.20;52.10
909;DHT22;441;51.192;6.788;2023-07-20T16:20:12;27.30;52.30
909;DHT22;441;51.192;6.788;2023-07-20T16:22:39;27.40;52.00
909;DHT22;441;51.192;6.788;2023-07-20T16:25:08;27.50;51.80
909;DHT22;441;51.192;6.788;2023-07-20T16:27:35;27.50;51.50
909;DHT22;441;51.192;6.788;2023-07-20T16:30:03;27.50;51.30
909;DHT22;441;51.192;6.788;2023-07-20T16:32:32;27.60;51.30
909;DHT22;441;51.192;6.788;2023-07-20T16:34:59;27.60;51.10
909;DHT22;441;51.192;6.788;2023-07-20T16:37:26;27.70;50.70
909;DHT22;441;51.192;6.788;2023-07-20T16:39:53;27.60;50.60